createdAt,value
2019-04-20T00:00:59.909Z,96489.66
2019-04-20T00:03:50.689Z,96486.75
2019-04-20T00:06:47.949Z,96481.36
2019-04-20T00:09:34.605Z,96489.52
2019-04-20T00:12:34.340Z,96485.14
2019-04-20T00:15:11.284Z,96480.34
2019-04-20T00:18:04.386Z,96478.27
2019-04-20T00:21:05.521Z,96478.94
2019-04-20T00:23:54.878Z,96479.83
2019-04-20T00:27:09.227Z,96473.17
2019-04-20T00:29:49.381Z,96468.65
2019-04-20T00:32:44.019Z,96472.14
2019-04-20T00:35:14.737Z,96470.67
2019-04-20T00:38:03.514Z,96471.38
2019-04-20T00:40:58.329Z,96466.45
2019-04-20T00:43:44.161Z,96465.61
2019-04-20T00:46:48.621Z,96463.58
2019-04-20T00:49:41.823Z,96466.84
2019-04-20T00:52:41.226Z,96471.06
2019-04-20T00:55:04.223Z,96473.78
2019-04-20T00:57:59.779Z,96470.80
2019-04-20T01:01:07.176Z,96469.28
2019-04-20T01:03:49.680Z,96467.66
2019-04-20T01:07:01.219Z,96463.85
2019-04-20T01:10:09.204Z,96464.48
2019-04-20T01:13:06.059Z,96464.00
2019-04-20T01:15:57.562Z,96459.63
2019-04-20T01:18:39.027Z,96468.08
2019-04-20T01:21:30.402Z,96466.16
2019-04-20T01:24:24.770Z,96463.04
2019-04-20T01:27:25.855Z,96466.34
2019-04-20T01:30:07.485Z,96462.56
2019-04-20T01:33:00.168Z,96459.72
2019-04-20T01:35:53.168Z,96467.20
2019-04-20T01:38:44.765Z,96464.06
2019-04-20T01:41:20.328Z,96464.63
2019-04-20T01:44:09.308Z,96462.28
2019-04-20T01:47:01.218Z,96466.20
2019-04-20T01:49:54.634Z,96461.78
2019-04-20T01:52:50.807Z,96463.83
2019-04-20T01:55:49.368Z,96465.98
2019-04-20T01:58:58.171Z,96468.41
2019-04-20T02:02:03.194Z,96466.05
2019-04-20T02:04:53.776Z,96470.30
2019-04-20T02:07:47.567Z,96467.81
2019-04-20T02:10:41.682Z,96466.08
2019-04-20T02:13:26.443Z,96475.59
2019-04-20T02:16:22.872Z,96471.75
2019-04-20T02:19:18.705Z,96475.83
2019-04-20T02:22:07.656Z,96482.47
2019-04-20T02:24:44.831Z,96476.74
2019-04-20T02:27:38.643Z,96481.44
2019-04-20T02:31:04.408Z,96483.68
2019-04-20T02:33:50.531Z,96479.87
2019-04-20T02:37:09.611Z,96486.84
2019-04-20T02:40:12.398Z,96485.02
2019-04-20T02:45:44.217Z,96481.56
2019-04-20T02:48:39.395Z,96484.59
2019-04-20T02:51:39.374Z,96481.98
2019-04-20T02:54:26.510Z,96483.74
2019-04-20T03:00:03.273Z,96483.44
2019-04-20T03:02:41.237Z,96482.98
2019-04-20T03:05:30.823Z,96482.59
2019-04-20T03:08:22.218Z,96481.91
2019-04-20T03:11:49.880Z,96476.70
2019-04-20T03:14:24.006Z,96481.58
2019-04-20T03:17:22.601Z,96483.88
2019-04-20T03:20:03.510Z,96484.28
2019-04-20T03:23:36.179Z,96487.80
2019-04-20T03:26:17.622Z,96485.27
2019-04-20T03:29:16.713Z,96488.66
2019-04-20T03:33:00.177Z,96485.52
2019-04-20T03:35:17.499Z,96483.69
2019-04-20T03:37:58.703Z,96485.02
2019-04-20T03:40:40.173Z,96483.76
2019-04-20T03:43:20.194Z,96482.45
2019-04-20T03:46:12.763Z,96487.31
2019-04-20T03:49:20.064Z,96490.95
2019-04-20T03:52:34.273Z,96490.09
2019-04-20T03:55:36.678Z,96489.62
2019-04-20T03:58:33.502Z,96496.42
2019-04-20T04:02:08.731Z,96494.67
2019-04-20T04:04:51.782Z,96499.97
2019-04-20T04:07:32.317Z,96497.06
2019-04-20T04:10:50.315Z,96499.73
2019-04-20T04:13:24.943Z,96502.83
2019-04-20T04:16:17.288Z,96511.56
2019-04-20T04:19:13.043Z,96508.13
2019-04-20T04:22:23.532Z,96502.44
2019-04-20T04:25:12.336Z,96509.77
2019-04-20T04:28:09.764Z,96505.05
2019-04-20T04:30:59.446Z,96512.45
2019-04-20T04:36:59.363Z,96510.33
2019-04-20T04:39:49.051Z,96507.76
2019-04-20T04:42:45.542Z,96509.00
2019-04-20T04:45:13.934Z,96508.97
2019-04-20T04:48:06.759Z,96510.75
2019-04-20T04:51:02.449Z,96517.67
2019-04-20T04:53:57.530Z,96518.95
2019-04-20T04:56:54.628Z,96517.10
2019-04-20T04:59:44.567Z,96519.29
2019-04-20T05:02:39.317Z,96523.63
2019-04-20T05:06:03.511Z,96525.41
2019-04-20T05:08:43.599Z,96525.44
2019-04-20T05:11:27.921Z,96525.00
2019-04-20T05:14:24.397Z,96527.53
2019-04-20T05:17:48.325Z,96520.55
2019-04-20T05:20:41.716Z,96527.95
2019-04-20T05:23:41.392Z,96533.14
2019-04-20T05:27:01.738Z,96529.22
2019-04-20T05:29:31.905Z,96523.58
2019-04-20T05:32:29.467Z,96520.97
2019-04-20T05:35:44.416Z,96516.56
2019-04-20T05:38:43.131Z,96520.36
2019-04-20T05:41:26.532Z,96528.05
2019-04-20T05:44:25.791Z,96522.29
2019-04-20T05:47:21.751Z,96519.23
2019-04-20T05:50:04.974Z,96518.23
2019-04-20T05:53:22.101Z,96523.74
2019-04-20T05:56:02.618Z,96523.98
2019-04-20T05:58:56.627Z,96513.83
2019-04-20T06:01:52.706Z,96518.41
2019-04-20T06:04:54.588Z,96519.11
2019-04-20T06:07:29.688Z,96515.58
2019-04-20T06:10:22.836Z,96517.34
2019-04-20T06:13:00.554Z,96523.30
2019-04-20T06:16:08.903Z,96523.64
2019-04-20T06:19:06.468Z,96523.82
2019-04-20T06:22:03.909Z,96533.68
2019-04-20T06:25:39.537Z,96527.90
2019-04-20T06:28:10.513Z,96524.27
2019-04-20T06:30:52.850Z,96526.66
2019-04-20T06:37:16.134Z,96530.23
2019-04-20T06:40:22.485Z,96536.94
2019-04-20T06:42:50.391Z,96533.80
2019-04-20T06:45:45.881Z,96534.95
2019-04-20T06:48:36.974Z,96538.34
2019-04-20T06:51:34.843Z,96539.51
2019-04-20T06:54:43.163Z,96533.27
2019-04-20T06:57:49.896Z,96531.73
2019-04-20T07:00:44.503Z,96533.63
2019-04-20T07:03:46.777Z,96536.47
2019-04-20T07:06:35.575Z,96534.94
2019-04-20T07:09:17.214Z,96531.72
2019-04-20T07:12:18.662Z,96533.73
2019-04-20T07:15:18.977Z,96537.83
2019-04-20T07:18:36.816Z,96534.88
2019-04-20T07:22:00.549Z,96533.82
2019-04-20T07:24:40.291Z,96528.25
2019-04-20T07:27:25.923Z,96527.13
2019-04-20T07:30:16.243Z,96528.08
2019-04-20T07:33:29.645Z,96526.46
2019-04-20T07:36:19.900Z,96525.83
2019-04-20T07:39:07.422Z,96525.58
2019-04-20T07:42:03.963Z,96530.91
2019-04-20T07:44:55.469Z,96529.80
2019-04-20T07:50:42.112Z,96533.64
2019-04-20T07:53:45.271Z,96532.98
2019-04-20T07:56:45.641Z,96530.14
2019-04-20T07:59:23.125Z,96520.62
2019-04-20T08:02:59.989Z,96523.78
2019-04-20T08:06:01.088Z,96526.97
2019-04-20T08:08:55.893Z,96525.39
2019-04-20T08:11:54.911Z,96526.06
2019-04-20T08:14:46.759Z,96520.53
2019-04-20T08:17:50.960Z,96528.62
2019-04-20T08:20:48.145Z,96527.66
2019-04-20T08:23:28.524Z,96528.69
2019-04-20T08:26:09.047Z,96525.87
2019-04-20T08:29:20.164Z,96526.80
2019-04-20T08:32:23.112Z,96519.94
2019-04-20T08:35:28.888Z,96520.79
2019-04-20T08:39:09.118Z,96526.36
2019-04-20T08:41:16.897Z,96528.35
2019-04-20T08:44:48.473Z,96520.09
2019-04-20T08:47:30.568Z,96521.09
2019-04-20T08:50:16.470Z,96518.34
2019-04-20T08:53:16.012Z,96521.77
2019-04-20T08:55:46.620Z,96514.52
2019-04-20T08:58:20.353Z,96516.80
2019-04-20T09:01:14.040Z,96515.38
2019-04-20T09:04:11.113Z,96515.95
2019-04-20T09:07:03.997Z,96519.90
2019-04-20T09:10:25.621Z,96515.84
2019-04-20T09:13:15.894Z,96522.20
2019-04-20T09:16:13.040Z,96510.20
2019-04-20T09:19:05.928Z,96505.23
2019-04-20T09:22:01.409Z,96506.03
2019-04-20T09:25:16.130Z,96499.92
2019-04-20T09:27:40.884Z,96498.95
2019-04-20T09:30:54.683Z,96499.09
2019-04-20T09:34:21.652Z,96492.83
2019-04-20T09:37:24.774Z,96499.07
2019-04-20T09:40:26.952Z,96498.32
2019-04-20T09:43:23.815Z,96488.42
2019-04-20T09:46:39.339Z,96491.99
2019-04-20T09:49:40.298Z,96485.57
2019-04-20T09:52:29.028Z,96478.91
2019-04-20T09:55:21.652Z,96482.34
2019-04-20T09:58:12.311Z,96478.80
2019-04-20T10:01:19.028Z,96476.33
2019-04-20T10:03:55.053Z,96474.17
2019-04-20T10:06:47.563Z,96470.72
2019-04-20T10:09:45.639Z,96472.81
2019-04-20T10:12:48.210Z,96470.47
2019-04-20T10:15:35.481Z,96465.80
2019-04-20T10:18:23.727Z,96459.52
2019-04-20T10:21:11.755Z,96459.52
2019-04-20T10:24:01.080Z,96464.09
2019-04-20T10:27:08.352Z,96459.33
2019-04-20T10:30:05.895Z,96454.28
2019-04-20T10:32:54.009Z,96460.84
2019-04-20T10:35:41.366Z,96461.57
2019-04-20T10:38:35.884Z,96458.28
2019-04-20T10:41:37.258Z,96452.28
2019-04-20T10:44:32.711Z,96448.05
2019-04-20T10:47:41.076Z,96448.50
2019-04-20T10:50:49.356Z,96443.16
2019-04-20T10:53:38.323Z,96444.85
2019-04-20T10:56:27.539Z,96442.73
2019-04-20T10:59:37.050Z,96432.95
2019-04-20T11:02:26.009Z,96445.73
2019-04-20T11:05:14.788Z,96434.55
2019-04-20T11:08:04.345Z,96436.94
2019-04-20T11:11:03.493Z,96430.41
2019-04-20T11:13:43.824Z,96434.81
2019-04-20T11:16:32.774Z,96426.27
2019-04-20T11:19:23.232Z,96432.25
2019-04-20T11:22:32.483Z,96426.91
2019-04-20T11:25:22.082Z,96425.61
2019-04-20T11:28:12.340Z,96423.86
2019-04-20T11:31:01.912Z,96417.39
2019-04-20T11:33:56.261Z,96413.96
2019-04-20T11:36:45.452Z,96417.91
2019-04-20T11:39:43.124Z,96412.44
2019-04-20T11:42:47.934Z,96415.88
2019-04-20T11:45:36.511Z,96413.14
2019-04-20T11:48:39.895Z,96411.64
2019-04-20T11:51:29.809Z,96399.89
2019-04-20T11:54:34.546Z,96408.38
2019-04-20T11:57:43.142Z,96408.23
2019-04-20T12:00:53.939Z,96403.10
2019-04-20T12:03:46.289Z,96401.02
2019-04-20T12:06:25.227Z,96405.77
2019-04-20T12:09:22.449Z,96399.12
2019-04-20T12:12:40.019Z,96391.89
2019-04-20T12:15:20.132Z,96395.32
2019-04-20T12:18:13.753Z,96393.42
2019-04-20T12:21:05.377Z,96395.70
2019-04-20T12:23:56.327Z,96387.44
2019-04-20T12:26:46.892Z,96389.41
2019-04-20T12:29:35.944Z,96382.17
2019-04-20T12:32:29.534Z,96383.06
2019-04-20T12:35:14.579Z,96380.84
2019-04-20T12:38:03.457Z,96380.45
2019-04-20T12:41:03.136Z,96376.08
2019-04-20T12:43:51.867Z,96379.17
2019-04-20T12:46:41.486Z,96374.86
2019-04-20T12:49:31.632Z,96377.54
2019-04-20T12:52:24.146Z,96372.20
2019-04-20T12:55:14.302Z,96367.52
2019-04-20T12:58:05.622Z,96370.34
2019-04-20T13:00:54.723Z,96361.55
2019-04-20T13:03:43.742Z,96375.97
2019-04-20T13:06:34.076Z,96363.98
2019-04-20T13:09:38.812Z,96362.87
2019-04-20T13:13:05.044Z,96359.74
2019-04-20T13:16:12.672Z,96358.95
2019-04-20T13:19:03.848Z,96358.30
2019-04-20T13:21:54.704Z,96352.45
2019-04-20T13:24:43.636Z,96356.08
2019-04-20T13:27:32.775Z,96341.36
2019-04-20T13:30:23.754Z,96342.06
2019-04-20T13:33:31.615Z,96353.22
2019-04-20T13:36:22.052Z,96344.77
2019-04-20T13:39:10.266Z,96341.03
2019-04-20T13:42:12.109Z,96337.08
2019-04-20T13:44:54.938Z,96340.80
2019-04-20T13:47:45.185Z,96338.07
2019-04-20T13:50:51.850Z,96339.03
2019-04-20T13:53:41.305Z,96331.31
2019-04-20T13:56:30.168Z,96319.45
2019-04-20T13:59:53.238Z,96310.27
2019-04-20T14:02:46.826Z,96306.91
2019-04-20T14:05:35.478Z,96305.37
2019-04-20T14:08:27.429Z,96311.16
2019-04-20T14:11:17.698Z,96305.28
2019-04-20T14:14:08.271Z,96299.75
2019-04-20T14:16:57.392Z,96296.02
2019-04-20T14:19:47.388Z,96297.30
2019-04-20T14:22:39.033Z,96291.05
2019-04-20T14:25:29.069Z,96292.58
2019-04-20T14:28:20.929Z,96293.59
2019-04-20T14:31:09.945Z,96283.29
2019-04-20T14:33:59.133Z,96287.57
2019-04-20T14:36:48.803Z,96287.94
2019-04-20T14:39:46.035Z,96283.73
2019-04-20T14:42:42.331Z,96275.50
2019-04-20T14:45:28.946Z,96279.66
2019-04-20T14:48:18.611Z,96268.78
2019-04-20T14:51:07.748Z,96271.41
2019-04-20T14:53:56.271Z,96270.48
2019-04-20T14:56:45.456Z,96263.56
2019-04-20T14:59:37.868Z,96262.97
2019-04-20T15:02:30.200Z,96259.80
2019-04-20T15:05:19.411Z,96262.28
2019-04-20T15:08:08.948Z,96256.45
2019-04-20T15:10:58.810Z,96259.55
2019-04-20T15:13:48.945Z,96248.06
2019-04-20T15:16:38.565Z,96257.53
2019-04-20T15:19:47.523Z,96251.34
2019-04-20T15:22:43.454Z,96245.77
2019-04-20T15:25:32.108Z,96238.42
2019-04-20T15:28:20.638Z,96248.06
2019-04-20T15:31:10.075Z,96242.41
2019-04-20T15:33:59.360Z,96247.16
2019-04-20T15:36:47.478Z,96239.67
2019-04-20T15:39:37.032Z,96240.67
2019-04-20T15:42:27.508Z,96238.59
2019-04-20T15:45:17.012Z,96232.88
2019-04-20T15:48:06.346Z,96231.09
2019-04-20T15:50:56.103Z,96232.38
2019-04-20T15:53:45.534Z,96226.88
2019-04-20T15:56:35.364Z,96230.95
2019-04-20T15:59:24.406Z,96225.41
2019-04-20T16:02:31.581Z,96232.81
2019-04-20T16:05:51.511Z,96225.70
2019-04-20T16:08:42.189Z,96218.93
2019-04-20T16:11:31.354Z,96221.10
2019-04-20T16:14:21.623Z,96217.95
2019-04-20T16:17:12.346Z,96217.42
2019-04-20T16:20:07.924Z,96207.34
2019-04-20T16:22:50.442Z,96203.72
2019-04-20T16:25:59.548Z,96210.75
2019-04-20T16:28:48.272Z,96200.17
2019-04-20T16:31:36.766Z,96199.91
2019-04-20T16:34:25.474Z,96201.26
2019-04-20T16:37:14.793Z,96199.41
2019-04-20T16:40:05.713Z,96192.98
2019-04-20T16:42:54.354Z,96192.30
2019-04-20T16:45:43.588Z,96187.38
2019-04-20T16:48:32.319Z,96187.45
2019-04-20T16:51:21.107Z,96187.70
2019-04-20T16:54:10.124Z,96185.05
2019-04-20T16:57:00.410Z,96184.78
2019-04-20T16:59:52.987Z,96183.84
2019-04-20T17:02:40.400Z,96180.27
2019-04-20T17:05:29.673Z,96176.95
2019-04-20T17:08:18.750Z,96184.72
2019-04-20T17:11:07.887Z,96184.63
2019-04-20T17:13:59.854Z,96177.02
2019-04-20T17:16:46.922Z,96182.13
2019-04-20T17:19:37.395Z,96175.77
2019-04-20T17:22:29.718Z,96178.56
2019-04-20T17:25:19.754Z,96174.06
2019-04-20T17:28:26.854Z,96178.77
2019-04-20T17:31:27.223Z,96175.08
2019-04-20T17:34:36.154Z,96178.99
2019-04-20T17:37:08.816Z,96174.66
2019-04-20T17:40:21.000Z,96182.86
2019-04-20T17:42:59.054Z,96181.98
2019-04-20T17:45:49.771Z,96177.91
2019-04-20T17:48:39.929Z,96183.77
2019-04-20T17:51:39.648Z,96184.92
2019-04-20T17:54:23.449Z,96186.28
2019-04-20T17:57:13.002Z,96187.12
2019-04-20T18:00:12.149Z,96182.48
2019-04-20T18:03:14.807Z,96191.43
2019-04-20T18:06:12.699Z,96187.14
2019-04-20T18:08:57.812Z,96190.56
2019-04-20T18:11:40.325Z,96192.47
2019-04-20T18:14:37.431Z,96191.63
2019-04-20T18:17:56.275Z,96189.87
2019-04-20T18:20:45.122Z,96190.63
2019-04-20T18:23:38.442Z,96190.35
2019-04-20T18:26:45.354Z,96188.73
2019-04-20T18:29:37.252Z,96195.13
2019-04-20T18:32:15.545Z,96190.88
2019-04-20T18:35:10.417Z,96190.44
2019-04-20T18:38:05.622Z,96193.34
2019-04-20T18:40:56.007Z,96192.70
2019-04-20T18:43:44.769Z,96191.06
2019-04-20T18:46:55.537Z,96198.27
2019-04-20T18:49:35.087Z,96191.61
2019-04-20T18:52:11.576Z,96198.35
2019-04-20T18:55:01.705Z,96190.75
2019-04-20T18:57:50.969Z,96190.79
2019-04-20T19:00:44.467Z,96201.84
2019-04-20T19:03:35.754Z,96205.78
2019-04-20T19:06:21.248Z,96202.45
2019-04-20T19:09:16.750Z,96202.02
2019-04-20T19:12:03.901Z,96200.64
2019-04-20T19:15:12.067Z,96210.97
2019-04-20T19:18:06.303Z,96217.56
2019-04-20T19:20:55.071Z,96213.13
2019-04-20T19:23:53.482Z,96211.29
2019-04-20T19:26:34.346Z,96211.45
2019-04-20T19:29:34.408Z,96218.50
2019-04-20T19:32:30.269Z,96214.30
2019-04-20T19:35:14.527Z,96214.28
2019-04-20T19:38:06.354Z,96210.66
2019-04-20T19:40:55.887Z,96213.69
2019-04-20T19:43:49.987Z,96219.90
2019-04-20T19:47:01.628Z,96227.01
2019-04-20T19:49:27.682Z,96217.59
2019-04-20T19:52:30.917Z,96218.09
2019-04-20T19:55:14.275Z,96216.27
2019-04-20T19:57:59.101Z,96216.62
2019-04-20T20:00:50.476Z,96218.08
2019-04-20T20:03:37.662Z,96216.30
2019-04-20T20:06:32.956Z,96219.46
2019-04-20T20:09:18.206Z,96215.51
2019-04-20T20:12:12.596Z,96219.98
2019-04-20T20:14:57.741Z,96217.88
2019-04-20T20:18:06.722Z,96215.88
2019-04-20T20:20:57.767Z,96219.17
2019-04-20T20:23:27.932Z,96218.63
2019-04-20T20:26:23.050Z,96214.41
2019-04-20T20:29:17.011Z,96221.83
2019-04-20T20:32:13.270Z,96213.57
2019-04-20T20:34:56.143Z,96221.73
2019-04-20T20:37:45.724Z,96221.73
2019-04-20T20:40:32.712Z,96219.37
2019-04-20T20:43:30.624Z,96217.38
2019-04-20T20:46:19.692Z,96217.31
2019-04-20T20:49:16.201Z,96217.31
2019-04-20T20:52:06.825Z,96216.98
2019-04-20T20:54:49.760Z,96215.81
2019-04-20T20:57:40.908Z,96221.81
2019-04-20T21:00:34.409Z,96221.81
2019-04-20T21:03:20.390Z,96221.20
2019-04-20T21:06:00.554Z,96223.03
2019-04-20T21:08:53.727Z,96223.58
2019-04-20T21:11:40.199Z,96222.92
2019-04-20T21:14:31.531Z,96224.45
2019-04-20T21:17:23.709Z,96231.19
2019-04-20T21:20:20.396Z,96222.95
2019-04-20T21:23:15.362Z,96226.86
2019-04-20T21:26:12.748Z,96225.35
2019-04-20T21:28:59.657Z,96223.58
2019-04-20T21:31:56.826Z,96226.98
2019-04-20T21:34:44.553Z,96229.50
2019-04-20T21:37:29.024Z,96224.44
2019-04-20T21:40:27.751Z,96224.88
2019-04-20T21:43:09.495Z,96222.55
2019-04-20T21:46:03.201Z,96216.94
2019-04-20T21:48:59.527Z,96211.19
2019-04-20T21:51:49.204Z,96213.81
2019-04-20T21:54:29.836Z,96216.32
2019-04-20T21:57:20.028Z,96215.20
2019-04-20T22:00:25.102Z,96215.20
2019-04-20T22:03:09.864Z,96215.79
2019-04-20T22:06:04.910Z,96211.45
2019-04-20T22:08:59.859Z,96211.50
2019-04-20T22:11:45.622Z,96209.38
2019-04-20T22:14:35.651Z,96212.20
2019-04-20T22:17:28.596Z,96202.12
2019-04-20T22:20:23.263Z,96201.80
2019-04-20T22:23:16.818Z,96203.73
2019-04-20T22:26:10.340Z,96198.36
2019-04-20T22:28:45.568Z,96197.87
2019-04-20T22:31:35.978Z,96196.81
2019-04-20T22:34:28.088Z,96203.13
2019-04-20T22:37:22.979Z,96189.70
2019-04-20T22:40:06.956Z,96188.56
2019-04-20T22:43:00.120Z,96192.70
2019-04-20T22:45:52.027Z,96190.66
2019-04-20T22:48:51.038Z,96188.94
2019-04-20T22:51:39.916Z,96178.88
2019-04-20T22:54:35.620Z,96178.71
2019-04-20T22:57:19.330Z,96171.97
2019-04-20T23:00:03.485Z,96168.13
2019-04-20T23:02:49.070Z,96164.79
2019-04-20T23:05:38.639Z,96158.87
2019-04-20T23:08:26.974Z,96152.69
2019-04-20T23:11:21.611Z,96150.61
2019-04-20T23:14:06.561Z,96158.13
2019-04-20T23:16:57.381Z,96154.80
2019-04-20T23:19:49.409Z,96152.92
2019-04-20T23:22:40.881Z,96149.58
2019-04-20T23:25:27.099Z,96150.78
2019-04-20T23:28:18.014Z,96154.81
2019-04-20T23:31:11.719Z,96145.55
2019-04-20T23:33:56.271Z,96136.13
2019-04-20T23:36:48.535Z,96140.12
2019-04-20T23:39:37.356Z,96130.58
2019-04-20T23:42:34.890Z,96134.73
2019-04-20T23:45:52.368Z,96137.75
2019-04-20T23:48:48.089Z,96130.80
2019-04-20T23:52:00.682Z,96129.37
2019-04-20T23:54:33.148Z,96123.19
2019-04-20T23:57:19.828Z,96131.56
